createdAt,value
2022-09-12T00:00:55.496Z,51.325783
2022-09-12T00:01:55.455Z,51.325760
2022-09-12T00:02:55.447Z,51.325768
2022-09-12T00:03:55.420Z,51.325787
2022-09-12T00:04:55.373Z,51.325809
2022-09-12T00:05:55.373Z,51.325737
2022-09-12T00:06:55.339Z,51.325710
2022-09-12T00:07:55.370Z,51.325642
2022-09-12T00:08:55.301Z,51.325699
2022-09-12T00:09:55.342Z,51.325649
2022-09-12T00:10:55.308Z,51.325706
2022-09-12T00:11:55.258Z,51.325737
2022-09-12T00:12:55.266Z,51.325737
2022-09-12T00:13:55.234Z,51.325779
2022-09-12T00:14:55.233Z,51.325760
2022-09-12T00:15:55.183Z,51.325748
2022-09-12T00:16:55.207Z,51.325771
2022-09-12T00:17:55.210Z,51.325771
2022-09-12T00:18:55.134Z,51.325760
2022-09-12T00:19:55.133Z,51.325752
2022-09-12T00:20:55.128Z,51.325802
2022-09-12T00:21:55.080Z,51.325756
2022-09-12T00:22:55.097Z,51.325745
2022-09-12T00:23:55.053Z,51.325645
2022-09-12T00:24:55.040Z,51.325645
2022-09-12T00:25:55.067Z,51.325668
2022-09-12T00:26:55.009Z,51.325680
2022-09-12T00:27:55.029Z,51.325775
2022-09-12T00:28:54.962Z,51.325771
2022-09-12T00:29:54.949Z,51.325787
2022-09-12T00:30:54.942Z,51.325733
2022-09-12T00:31:54.948Z,51.325760
2022-09-12T00:32:54.922Z,51.325779
2022-09-12T00:33:54.886Z,51.325829
2022-09-12T00:34:54.873Z,51.325802
2022-09-12T00:35:54.848Z,51.325806
2022-09-12T00:36:54.810Z,51.325844
2022-09-12T00:37:54.830Z,51.325783
2022-09-12T00:38:54.865Z,51.325779
2022-09-12T00:39:54.807Z,51.325748
2022-09-12T00:40:54.758Z,51.325764
2022-09-12T00:41:54.747Z,51.325756
2022-09-12T00:42:54.755Z,51.325764
2022-09-12T00:43:54.720Z,51.325768
2022-09-12T00:44:54.688Z,51.325768
2022-09-12T00:45:54.720Z,51.325829
2022-09-12T00:46:54.691Z,51.325851
2022-09-12T00:47:54.680Z,51.325806
2022-09-12T00:48:54.639Z,51.325806
2022-09-12T00:49:54.608Z,51.325790
2022-09-12T00:50:54.595Z,51.325790
2022-09-12T00:51:54.603Z,51.325832
2022-09-12T00:52:54.630Z,51.325809
2022-09-12T00:53:54.531Z,51.325790
2022-09-12T00:54:54.523Z,51.325748
2022-09-12T00:55:54.505Z,51.325733
2022-09-12T00:56:54.491Z,51.325729
2022-09-12T00:57:54.504Z,51.325737
2022-09-12T00:58:54.455Z,51.325756
2022-09-12T00:59:54.521Z,51.325771
2022-09-12T01:00:54.670Z,51.325783
2022-09-12T01:01:54.491Z,51.325806
2022-09-12T01:02:54.433Z,51.325783
2022-09-12T01:03:54.383Z,51.325756
2022-09-12T01:04:54.359Z,51.325756
2022-09-12T01:05:54.348Z,51.325756
2022-09-12T01:06:54.360Z,51.325756
2022-09-12T01:07:54.345Z,51.325756
2022-09-12T01:08:54.319Z,51.325768
2022-09-12T01:09:54.273Z,51.325745
2022-09-12T01:10:54.280Z,51.325756
2022-09-12T01:11:54.244Z,51.325768
2022-09-12T01:12:54.260Z,51.325764
2022-09-12T01:13:54.214Z,51.325775
2022-09-12T01:14:54.204Z,51.325783
2022-09-12T01:15:54.178Z,51.325783
2022-09-12T01:16:54.177Z,51.325779
2022-09-12T01:17:54.184Z,51.325771
2022-09-12T01:18:54.128Z,51.325756
2022-09-12T01:19:54.104Z,51.325748
2022-09-12T01:20:54.092Z,51.325783
2022-09-12T01:21:54.073Z,51.325775
2022-09-12T01:22:54.110Z,51.325771
2022-09-12T01:23:54.052Z,51.325756
2022-09-12T01:24:54.024Z,51.325771
2022-09-12T01:25:54.027Z,51.325779
2022-09-12T01:26:53.985Z,51.325783
2022-09-12T01:27:54.007Z,51.325768
2022-09-12T01:28:53.956Z,51.325771
2022-09-12T01:29:53.957Z,51.325771
2022-09-12T01:30:53.917Z,51.325756
2022-09-12T01:31:53.925Z,51.325760
2022-09-12T01:32:53.926Z,51.325775
2022-09-12T01:33:53.875Z,51.325771
2022-09-12T01:34:53.852Z,51.325748
2022-09-12T01:35:53.838Z,51.325756
2022-09-12T01:36:53.820Z,51.325760
2022-09-12T01:37:53.829Z,51.325760
2022-09-12T01:38:53.781Z,51.325748
2022-09-12T01:39:53.858Z,51.325752
2022-09-12T01:40:53.741Z,51.325733
2022-09-12T01:41:53.737Z,51.325748
2022-09-12T01:42:53.742Z,51.325748
2022-09-12T01:43:53.692Z,51.325748
2022-09-12T01:44:53.702Z,51.325794
2022-09-12T01:45:53.712Z,51.325745
2022-09-12T01:46:53.660Z,51.325737
2022-09-12T01:47:53.670Z,51.325726
2022-09-12T01:48:53.626Z,51.325737
2022-09-12T01:49:54.614Z,51.325802
2022-09-12T01:50:53.593Z,51.325794
2022-09-12T01:51:53.594Z,51.325752
2022-09-12T01:52:53.600Z,51.325748
2022-09-12T01:53:53.528Z,51.325752
2022-09-12T01:54:53.518Z,51.325752
2022-09-12T01:55:53.520Z,51.325794
2022-09-12T01:56:53.473Z,51.325741
2022-09-12T01:57:54.499Z,51.325737
2022-09-12T01:58:53.444Z,51.325768
2022-09-12T01:59:53.439Z,51.325775
2022-09-12T02:00:53.448Z,51.325733
2022-09-12T02:01:53.435Z,51.325809
2022-09-12T02:02:53.372Z,51.325771
2022-09-12T02:03:53.389Z,51.325756
2022-09-12T02:04:53.342Z,51.325745
2022-09-12T02:05:53.335Z,51.325768
2022-09-12T02:06:53.323Z,51.325787
2022-09-12T02:07:53.296Z,51.325768
2022-09-12T02:08:53.309Z,51.325771
2022-09-12T02:09:53.263Z,51.325775
2022-09-12T02:10:53.263Z,51.325783
2022-09-12T02:11:53.234Z,51.325748
2022-09-12T02:12:53.227Z,51.325748
2022-09-12T02:13:53.237Z,51.325737
2022-09-12T02:14:53.186Z,51.325756
2022-09-12T02:15:53.157Z,51.325752
2022-09-12T02:16:53.152Z,51.325756
2022-09-12T02:17:53.149Z,51.325756
2022-09-12T02:18:53.141Z,51.325756
2022-09-12T02:19:53.098Z,51.325748
2022-09-12T02:20:53.114Z,51.325760
2022-09-12T02:21:53.079Z,51.325726
2022-09-12T02:22:53.093Z,51.325733
2022-09-12T02:23:53.074Z,51.325748
2022-09-12T02:24:53.009Z,51.325745
2022-09-12T02:25:53.104Z,51.325733
2022-09-12T02:26:53.017Z,51.325706
2022-09-12T02:27:52.991Z,51.325718
2022-09-12T02:28:52.981Z,51.325760
2022-09-12T02:29:52.932Z,51.325813
2022-09-12T02:30:52.964Z,51.325756
2022-09-12T02:31:52.894Z,51.325710
2022-09-12T02:32:52.868Z,51.325771
2022-09-12T02:33:52.885Z,51.325645
2022-09-12T02:34:52.840Z,51.325703
2022-09-12T02:35:52.824Z,51.325737
2022-09-12T02:36:52.801Z,51.325748
2022-09-12T02:37:52.798Z,51.325813
2022-09-12T02:38:52.931Z,51.325733
2022-09-12T02:39:52.773Z,51.325733
2022-09-12T02:40:52.752Z,51.325752
2022-09-12T02:41:52.714Z,51.325779
2022-09-12T02:42:52.721Z,51.325752
2022-09-12T02:43:52.720Z,51.325775
2022-09-12T02:44:52.695Z,51.325787
2022-09-12T02:45:52.677Z,51.325756
2022-09-12T02:46:52.637Z,51.325745
2022-09-12T02:47:52.623Z,51.325741
2022-09-12T02:48:52.648Z,51.325867
2022-09-12T02:49:52.581Z,51.325825
2022-09-12T02:50:52.586Z,51.325836
2022-09-12T02:51:52.546Z,51.325821
2022-09-12T02:52:52.539Z,51.325836
2022-09-12T02:53:52.551Z,51.325680
2022-09-12T02:54:52.518Z,51.325760
2022-09-12T02:55:52.497Z,51.325806
2022-09-12T02:56:52.504Z,51.325848
2022-09-12T02:57:52.477Z,51.325809
2022-09-12T02:58:52.463Z,51.325752
2022-09-12T02:59:52.427Z,51.325733
2022-09-12T03:00:52.465Z,51.325710
2022-09-12T03:01:52.434Z,51.325714
2022-09-12T03:02:52.389Z,51.325661
2022-09-12T03:03:53.382Z,51.325657
2022-09-12T03:04:52.351Z,51.325672
2022-09-12T03:05:52.329Z,51.325771
2022-09-12T03:06:52.320Z,51.325733
2022-09-12T03:07:52.294Z,51.325737
2022-09-12T03:08:52.330Z,51.325764
2022-09-12T03:09:52.264Z,51.325706
2022-09-12T03:10:52.243Z,51.325741
2022-09-12T03:11:52.222Z,51.325771
2022-09-12T03:12:52.200Z,51.325779
2022-09-12T03:13:52.228Z,51.325764
2022-09-12T03:14:52.179Z,51.325775
2022-09-12T03:15:52.171Z,51.325756
2022-09-12T03:16:52.139Z,51.325752
2022-09-12T03:17:52.137Z,51.325790
2022-09-12T03:18:52.144Z,51.325760
2022-09-12T03:19:52.094Z,51.325832
2022-09-12T03:20:52.071Z,51.325760
2022-09-12T03:21:52.058Z,51.325638
2022-09-12T03:22:52.044Z,51.325645
2022-09-12T03:23:52.081Z,51.325737
2022-09-12T03:24:52.029Z,51.325771
2022-09-12T03:25:51.990Z,51.325798
2022-09-12T03:26:51.975Z,51.325783
2022-09-12T03:27:51.951Z,51.325779
2022-09-12T03:28:51.967Z,51.325718
2022-09-12T03:29:51.923Z,51.325745
2022-09-12T03:30:51.942Z,51.325741
2022-09-12T03:31:51.887Z,51.325813
2022-09-12T03:32:51.882Z,51.325756
2022-09-12T03:33:51.892Z,51.325729
2022-09-12T03:34:51.844Z,51.325771
2022-09-12T03:35:51.824Z,51.325687
2022-09-12T03:36:51.810Z,51.325649
2022-09-12T03:37:51.787Z,51.325687
2022-09-12T03:38:51.801Z,51.325729
2022-09-12T03:39:51.782Z,51.325741
2022-09-12T03:40:54.805Z,51.325665
2022-09-12T03:41:52.717Z,51.325745
2022-09-12T03:42:51.705Z,51.325775
2022-09-12T03:43:51.712Z,51.325768
2022-09-12T03:44:51.669Z,51.325752
2022-09-12T03:45:51.663Z,51.325756
2022-09-12T03:46:51.634Z,51.325771
2022-09-12T03:47:51.641Z,51.325771
2022-09-12T03:48:51.636Z,51.325764
2022-09-12T03:49:51.588Z,51.325687
2022-09-12T03:50:51.561Z,51.325684
2022-09-12T03:51:51.553Z,51.325783
2022-09-12T03:52:51.532Z,51.325790
2022-09-12T03:53:51.541Z,51.325764
2022-09-12T03:54:51.491Z,51.325771
2022-09-12T03:55:51.479Z,51.325764
2022-09-12T03:56:51.464Z,51.325756
2022-09-12T03:57:51.455Z,51.325768
2022-09-12T03:58:51.463Z,51.325764
2022-09-12T03:59:51.418Z,51.325775
2022-09-12T04:00:51.441Z,51.325771
2022-09-12T04:01:51.451Z,51.325768
2022-09-12T04:02:51.369Z,51.325760
2022-09-12T04:03:51.398Z,51.325764
2022-09-12T04:04:51.358Z,51.325764
2022-09-12T04:05:51.307Z,51.325771
2022-09-12T04:06:51.301Z,51.325756
2022-09-12T04:07:51.297Z,51.325752
2022-09-12T04:08:51.361Z,51.325752
2022-09-12T04:09:51.269Z,51.325733
2022-09-12T04:10:51.227Z,51.325752
2022-09-12T04:11:51.226Z,51.325714
2022-09-12T04:12:51.207Z,51.325726
2022-09-12T04:13:51.220Z,51.325737
2022-09-12T04:14:51.162Z,51.325756
2022-09-12T04:15:51.151Z,51.325760
2022-09-12T04:16:51.216Z,51.325764
2022-09-12T04:17:51.122Z,51.325764
2022-09-12T04:18:51.124Z,51.325741
2022-09-12T04:19:51.086Z,51.325764
2022-09-12T04:20:51.052Z,51.325752
2022-09-12T04:21:51.045Z,51.325783
2022-09-12T04:22:51.037Z,51.325836
2022-09-12T04:23:51.047Z,51.325775
2022-09-12T04:24:50.986Z,51.325779
2022-09-12T04:25:50.971Z,51.325790
2022-09-12T04:26:50.988Z,51.325806
2022-09-12T04:27:50.933Z,51.325787
2022-09-12T04:28:50.952Z,51.325783
2022-09-12T04:29:50.900Z,51.325809
2022-09-12T04:30:50.977Z,51.325760
2022-09-12T04:31:50.864Z,51.325806
2022-09-12T04:32:50.864Z,51.325745
2022-09-12T04:33:50.872Z,51.325813
2022-09-12T04:34:50.826Z,51.325787
2022-09-12T04:35:50.794Z,51.325783
2022-09-12T04:36:50.795Z,51.325768
2022-09-12T04:37:50.758Z,51.325817
2022-09-12T04:38:50.769Z,51.325783
2022-09-12T04:39:50.877Z,51.325783
2022-09-12T04:40:50.715Z,51.325768
2022-09-12T04:41:50.691Z,51.325768
2022-09-12T04:42:50.680Z,51.325748
2022-09-12T04:43:50.691Z,51.325752
2022-09-12T04:44:50.647Z,51.325775
2022-09-12T04:45:50.674Z,51.325775
2022-09-12T04:46:50.607Z,51.325809
2022-09-12T04:47:50.616Z,51.325809
2022-09-12T04:48:54.601Z,51.325790
2022-09-12T04:49:52.565Z,51.325790
2022-09-12T04:50:50.548Z,51.325806
2022-09-12T04:51:50.538Z,51.325802
2022-09-12T04:52:50.503Z,51.325775
2022-09-12T04:53:50.522Z,51.325756
2022-09-12T04:54:50.460Z,51.325748
2022-09-12T04:55:51.460Z,51.325775
2022-09-12T04:56:50.463Z,51.325760
2022-09-12T04:57:50.426Z,51.325752
2022-09-12T04:58:50.452Z,51.325748
2022-09-12T04:59:50.396Z,51.325760
2022-09-12T05:00:50.358Z,51.325764
2022-09-12T05:01:50.397Z,51.325699
2022-09-12T05:02:50.355Z,51.325695
2022-09-12T05:03:50.346Z,51.325752
2022-09-12T05:04:50.297Z,51.325771
2022-09-12T05:05:53.305Z,51.325752
2022-09-12T05:06:52.268Z,51.325802
2022-09-12T05:07:50.246Z,51.325768
2022-09-12T05:08:50.267Z,51.325733
2022-09-12T05:09:50.200Z,51.325756
2022-09-12T05:10:50.230Z,51.325752
2022-09-12T05:12:05.940Z,51.325710
2022-09-12T05:12:52.161Z,51.325752
2022-09-12T05:13:50.193Z,51.325775
2022-09-12T05:14:50.132Z,51.325794
2022-09-12T05:15:50.109Z,51.325787
2022-09-12T05:16:50.146Z,51.325809
2022-09-12T05:17:50.075Z,51.325806
2022-09-12T05:18:50.103Z,51.325783
2022-09-12T05:19:50.039Z,51.325653
2022-09-12T05:20:50.047Z,51.325676
2022-09-12T05:21:50.001Z,51.325745
2022-09-12T05:22:49.993Z,51.325741
2022-09-12T05:23:50.001Z,51.325726
2022-09-12T05:24:50.650Z,51.325756
2022-09-12T05:25:50.941Z,51.325783
2022-09-12T05:26:49.917Z,51.325779
2022-09-12T05:27:50.591Z,51.325779
2022-09-12T05:28:50.923Z,51.325779
2022-09-12T05:29:50.872Z,51.325794
2022-09-12T05:30:49.860Z,51.325771
2022-09-12T05:31:49.840Z,51.325684
2022-09-12T05:32:49.814Z,51.325684
2022-09-12T05:33:49.826Z,51.325695
2022-09-12T05:34:49.782Z,51.325760
2022-09-12T05:35:49.766Z,51.325768
2022-09-12T05:36:49.770Z,51.325779
2022-09-12T05:37:49.729Z,51.325764
2022-09-12T05:38:49.737Z,51.325768
2022-09-12T05:39:49.724Z,51.325760
2022-09-12T05:40:49.670Z,51.325764
2022-09-12T05:41:49.651Z,51.325756
2022-09-12T05:42:49.635Z,51.325771
2022-09-12T05:43:49.658Z,51.325775
2022-09-12T05:44:49.618Z,51.325779
2022-09-12T05:45:49.617Z,51.325771
2022-09-12T05:46:49.585Z,51.325752
2022-09-12T05:47:49.590Z,51.325756
2022-09-12T05:48:53.710Z,51.325760
2022-09-12T05:49:51.529Z,51.325756
2022-09-12T05:50:49.512Z,51.325752
2022-09-12T05:51:49.519Z,51.325733
2022-09-12T05:52:49.478Z,51.325737
2022-09-12T05:53:49.538Z,51.325741
2022-09-12T05:54:49.488Z,51.325752
2022-09-12T05:55:49.420Z,51.325745
2022-09-12T05:56:49.425Z,51.325748
2022-09-12T05:57:49.374Z,51.325790
2022-09-12T05:58:49.393Z,51.325787
2022-09-12T05:59:49.336Z,51.325802
2022-09-12T06:00:49.323Z,51.325764
2022-09-12T06:01:49.444Z,51.325787
2022-09-12T06:02:49.292Z,51.325829
2022-09-12T06:03:49.313Z,51.325768
2022-09-12T06:04:49.278Z,51.325829
2022-09-12T06:05:50.738Z,51.325840
2022-09-12T06:06:50.287Z,51.325825
2022-09-12T06:07:49.222Z,51.325863
2022-09-12T06:08:49.304Z,51.325848
2022-09-12T06:09:49.180Z,51.325863
2022-09-12T06:10:49.155Z,51.325756
2022-09-12T06:11:49.157Z,51.325691
2022-09-12T06:12:49.152Z,51.325748
2022-09-12T06:13:49.148Z,51.325733
2022-09-12T06:14:49.106Z,51.325714
2022-09-12T06:15:49.090Z,51.325741
2022-09-12T06:16:49.103Z,51.325714
2022-09-12T06:17:51.395Z,51.325726
2022-09-12T06:18:50.074Z,51.325752
2022-09-12T06:19:49.018Z,51.325752
2022-09-12T06:20:49.005Z,51.325737
2022-09-12T06:21:48.980Z,51.325726
2022-09-12T06:22:48.985Z,51.325729
2022-09-12T06:23:48.972Z,51.325756
2022-09-12T06:24:48.951Z,51.325790
2022-09-12T06:25:48.903Z,51.325790
2022-09-12T06:26:48.891Z,51.325829
2022-09-12T06:27:49.879Z,51.325798
2022-09-12T06:28:48.899Z,51.325783
2022-09-12T06:29:48.928Z,51.325771
2022-09-12T06:30:48.941Z,51.325733
2022-09-12T06:31:48.821Z,51.325729
2022-09-12T06:32:48.802Z,51.325752
2022-09-12T06:33:48.846Z,51.325802
2022-09-12T06:34:48.798Z,51.325851
2022-09-12T06:35:48.783Z,51.325813
2022-09-12T06:36:48.730Z,51.325809
2022-09-12T06:37:48.717Z,51.325863
2022-09-12T06:38:48.742Z,51.325878
2022-09-12T06:39:48.776Z,51.325912
2022-09-12T06:40:48.762Z,51.326042
2022-09-12T06:41:48.657Z,51.326092
2022-09-12T06:42:48.640Z,51.325970
2022-09-12T06:43:48.703Z,51.325912
2022-09-12T06:44:48.648Z,51.325878
2022-09-12T06:45:48.710Z,51.325890
2022-09-12T06:46:48.588Z,51.325840
2022-09-12T06:47:48.592Z,51.325771
2022-09-12T06:48:48.723Z,51.325729
2022-09-12T06:49:48.552Z,51.325706
2022-09-12T06:50:48.515Z,51.325714
2022-09-12T06:51:48.510Z,51.325714
2022-09-12T06:52:48.508Z,51.325714
2022-09-12T06:53:48.517Z,51.325714
2022-09-12T06:54:48.470Z,51.325760
2022-09-12T06:55:48.475Z,51.325706
2022-09-12T06:56:48.430Z,51.325718
2022-09-12T06:57:48.401Z,51.325718
2022-09-12T06:58:48.455Z,51.325775
2022-09-12T06:59:48.371Z,51.325577
2022-09-12T07:00:48.360Z,51.325634
2022-09-12T07:01:48.421Z,51.325726
2022-09-12T07:02:48.330Z,51.325756
2022-09-12T07:03:48.339Z,51.325809
2022-09-12T07:04:48.287Z,51.325764
2022-09-12T07:05:48.303Z,51.325737
2022-09-12T07:06:48.255Z,51.325760
2022-09-12T07:07:48.249Z,51.325745
2022-09-12T07:08:48.274Z,51.325764
2022-09-12T07:09:48.213Z,51.325745
2022-09-12T07:10:48.198Z,51.325790
2022-09-12T07:11:48.175Z,51.325771
2022-09-12T07:12:48.168Z,51.325760
2022-09-12T07:13:48.166Z,51.325779
2022-09-12T07:14:48.134Z,51.325859
2022-09-12T07:15:48.109Z,51.325829
2022-09-12T07:16:48.176Z,51.325771
2022-09-12T07:17:48.080Z,51.325745
2022-09-12T07:18:48.096Z,51.325748
2022-09-12T07:19:48.074Z,51.325760
2022-09-12T07:20:48.032Z,51.325775
2022-09-12T07:21:48.012Z,51.325790
2022-09-12T07:22:48.008Z,51.325756
2022-09-12T07:23:48.281Z,51.325756
2022-09-12T07:24:47.980Z,51.325779
2022-09-12T07:25:47.965Z,51.325790
2022-09-12T07:26:47.963Z,51.325794
2022-09-12T07:27:51.095Z,51.325768
2022-09-12T07:28:48.967Z,51.325775
2022-09-12T07:29:47.917Z,51.325756
2022-09-12T07:30:47.984Z,51.325737
2022-09-12T07:31:47.865Z,51.325726
2022-09-12T07:32:47.871Z,51.325718
2022-09-12T07:33:52.361Z,51.325741
2022-09-12T07:34:49.851Z,51.325813
2022-09-12T07:35:47.821Z,51.325756
2022-09-12T07:36:47.792Z,51.325771
2022-09-12T07:37:47.792Z,51.325806
2022-09-12T07:38:47.896Z,51.325790
2022-09-12T07:39:47.780Z,51.325825
2022-09-12T07:40:47.732Z,51.325817
2022-09-12T07:41:47.723Z,51.325779
2022-09-12T07:42:47.699Z,51.325768
2022-09-12T07:43:47.889Z,51.325768
2022-09-12T07:44:47.684Z,51.325790
2022-09-12T07:45:47.701Z,51.325764
2022-09-12T07:46:47.649Z,51.325752
2022-09-12T07:47:47.663Z,51.325768
2022-09-12T07:48:47.660Z,51.325737
2022-09-12T07:49:47.667Z,51.325729
2022-09-12T07:50:47.641Z,51.325733
2022-09-12T07:51:47.656Z,51.325726
2022-09-12T07:52:47.560Z,51.325764
2022-09-12T07:53:47.733Z,51.325752
2022-09-12T07:54:47.526Z,51.325737
2022-09-12T07:55:47.539Z,51.325726
2022-09-12T07:56:47.497Z,51.325741
2022-09-12T07:57:47.481Z,51.325729
2022-09-12T07:58:47.557Z,51.325745
2022-09-12T07:59:52.773Z,51.325748
2022-09-12T08:00:49.443Z,51.325737
2022-09-12T08:01:47.436Z,51.325722
2022-09-12T08:02:47.431Z,51.325714
2022-09-12T08:03:47.594Z,51.325729
2022-09-12T08:04:47.376Z,51.325752
2022-09-12T08:05:47.369Z,51.325752
2022-09-12T08:06:47.353Z,51.325756
2022-09-12T08:07:47.336Z,51.325768
2022-09-12T08:08:47.356Z,51.325741
2022-09-12T08:09:47.310Z,51.325779
2022-09-12T08:10:47.395Z,51.325771
2022-09-12T08:11:47.278Z,51.325748
2022-09-12T08:12:47.268Z,51.325768
2022-09-12T08:13:49.635Z,51.325752
2022-09-12T08:14:48.253Z,51.325714
2022-09-12T08:15:47.246Z,51.325737
2022-09-12T08:16:47.235Z,51.325729
2022-09-12T08:17:47.200Z,51.325726
2022-09-12T08:18:47.210Z,51.325726
2022-09-12T08:19:47.167Z,51.325718
2022-09-12T08:20:47.168Z,51.325722
2022-09-12T08:21:47.136Z,51.325737
2022-09-12T08:22:47.130Z,51.325733
2022-09-12T08:23:47.295Z,51.325726
2022-09-12T08:24:47.102Z,51.325718
2022-09-12T08:25:47.097Z,51.325733
2022-09-12T08:26:47.101Z,51.325737
2022-09-12T08:27:47.067Z,51.325748
2022-09-12T08:28:47.095Z,51.325748
2022-09-12T08:29:47.034Z,51.325764
2022-09-12T08:30:47.073Z,51.325779
2022-09-12T08:31:47.009Z,51.325737
2022-09-12T08:32:47.032Z,51.325733
2022-09-12T08:33:47.104Z,51.325699
2022-09-12T08:34:46.980Z,51.325703
2022-09-12T08:35:46.937Z,51.325695
2022-09-12T08:36:46.925Z,51.325695
2022-09-12T08:37:46.926Z,51.325672
2022-09-12T08:38:46.948Z,51.325729
2022-09-12T08:39:46.905Z,51.325703
2022-09-12T08:40:46.897Z,51.325703
2022-09-12T08:41:46.866Z,51.325737
2022-09-12T08:42:46.840Z,51.325745
2022-09-12T08:43:46.924Z,51.325718
2022-09-12T08:44:46.817Z,51.325703
2022-09-12T08:45:47.837Z,51.325645
2022-09-12T08:46:47.127Z,51.325676
2022-09-12T08:47:46.773Z,51.325603
2022-09-12T08:48:46.815Z,51.325634
2022-09-12T08:49:46.754Z,51.325665
2022-09-12T08:50:49.849Z,51.325676
2022-09-12T08:51:47.715Z,51.325699
2022-09-12T08:52:46.708Z,51.325710
2022-09-12T08:53:47.298Z,51.325714
2022-09-12T08:54:46.700Z,51.325684
2022-09-12T08:55:46.668Z,51.325668
2022-09-12T08:56:46.654Z,51.325695
2022-09-12T08:57:46.646Z,51.325714
2022-09-12T08:58:46.655Z,51.325687
2022-09-12T08:59:46.618Z,51.325657
2022-09-12T09:00:46.592Z,51.325661
2022-09-12T09:01:52.539Z,51.325645
2022-09-12T09:02:47.677Z,51.325729
2022-09-12T09:03:46.670Z,51.325695
2022-09-12T09:04:46.553Z,51.325649
2022-09-12T09:05:46.522Z,51.325665
2022-09-12T09:06:46.515Z,51.325657
2022-09-12T09:07:46.491Z,51.325657
2022-09-12T09:08:46.506Z,51.325676
2022-09-12T09:09:46.472Z,51.325634
2022-09-12T09:10:46.447Z,51.325623
2022-09-12T09:11:46.468Z,51.325603
2022-09-12T09:12:46.420Z,51.325600
2022-09-12T09:13:46.562Z,51.325603
2022-09-12T09:14:46.392Z,51.325592
2022-09-12T09:15:46.411Z,51.325615
2022-09-12T09:16:46.375Z,51.325611
2022-09-12T09:17:46.353Z,51.325623
2022-09-12T09:18:46.366Z,51.325630
2022-09-12T09:19:50.109Z,51.325672
2022-09-12T09:20:47.334Z,51.325680
2022-09-12T09:21:46.330Z,51.325672
2022-09-12T09:22:46.275Z,51.325668
2022-09-12T09:23:46.367Z,51.325672
2022-09-12T09:24:46.259Z,51.325687
2022-09-12T09:25:46.239Z,51.325684
2022-09-12T09:26:46.211Z,51.325680
2022-09-12T09:27:46.211Z,51.325680
2022-09-12T09:28:46.210Z,51.325687
2022-09-12T09:29:46.160Z,51.325676
2022-09-12T09:30:46.184Z,51.325653
2022-09-12T09:31:46.146Z,51.325661
2022-09-12T09:32:46.150Z,51.325668
2022-09-12T09:33:46.237Z,51.325665
2022-09-12T09:34:46.098Z,51.325638
2022-09-12T09:35:46.094Z,51.325657
2022-09-12T09:36:46.061Z,51.325703
2022-09-12T09:37:46.056Z,51.325710
2022-09-12T09:38:46.194Z,51.325722
2022-09-12T09:39:46.062Z,51.325722
2022-09-12T09:40:45.995Z,51.325703
2022-09-12T09:41:45.989Z,51.325706
2022-09-12T09:42:45.972Z,51.325714
2022-09-12T09:43:45.986Z,51.325714
2022-09-12T09:44:45.938Z,51.325714
2022-09-12T09:45:47.867Z,51.325737
2022-09-12T09:46:46.945Z,51.325722
2022-09-12T09:47:45.888Z,51.325714
2022-09-12T09:48:46.023Z,51.325703
2022-09-12T09:49:45.955Z,51.325699
2022-09-12T09:50:46.842Z,51.325714
2022-09-12T09:51:45.832Z,51.325722
2022-09-12T09:52:45.818Z,51.325703
2022-09-12T09:53:45.870Z,51.325710
2022-09-12T09:54:45.783Z,51.325672
2022-09-12T09:55:45.775Z,51.325687
2022-09-12T09:56:45.748Z,51.325691
2022-09-12T09:57:45.758Z,51.325699
2022-09-12T09:58:45.847Z,51.325714
2022-09-12T09:59:45.707Z,51.325710
2022-09-12T10:00:45.688Z,51.325703
2022-09-12T10:01:45.701Z,51.325695
2022-09-12T10:02:45.724Z,51.325691
2022-09-12T10:03:45.681Z,51.325703
2022-09-12T10:04:45.639Z,51.325680
2022-09-12T10:05:45.619Z,51.325714
2022-09-12T10:06:45.606Z,51.325699
2022-09-12T10:07:45.600Z,51.325706
2022-09-12T10:08:45.664Z,51.325703
2022-09-12T10:09:45.557Z,51.325699
2022-09-12T10:10:45.566Z,51.325699
2022-09-12T10:11:46.116Z,51.325684
2022-09-12T10:12:46.530Z,51.325710
2022-09-12T10:13:45.554Z,51.325703
2022-09-12T10:14:45.477Z,51.325695
2022-09-12T10:15:45.538Z,51.325703
2022-09-12T10:16:45.459Z,51.325737
2022-09-12T10:17:45.442Z,51.325729
2022-09-12T10:18:45.886Z,51.325714
2022-09-12T10:19:49.855Z,51.325706
2022-09-12T10:20:46.384Z,51.325706
2022-09-12T10:21:45.375Z,51.325691
2022-09-12T10:22:45.381Z,51.325703
2022-09-12T10:23:45.461Z,51.325699
2022-09-12T10:24:45.344Z,51.325684
2022-09-12T10:25:45.326Z,51.325691
2022-09-12T10:26:45.289Z,51.325718
2022-09-12T10:27:45.288Z,51.325714
2022-09-12T10:28:45.437Z,51.325726
2022-09-12T10:29:45.254Z,51.325706
2022-09-12T10:30:45.302Z,51.325710
2022-09-12T10:31:45.223Z,51.325691
2022-09-12T10:32:45.226Z,51.325703
2022-09-12T10:33:45.274Z,51.325729
2022-09-12T10:34:45.178Z,51.325699
2022-09-12T10:35:45.162Z,51.325710
2022-09-12T10:36:45.158Z,51.325726
2022-09-12T10:37:48.328Z,51.325726
2022-09-12T10:38:46.157Z,51.325714
2022-09-12T10:39:45.172Z,51.325729
2022-09-12T10:40:45.126Z,51.325699
2022-09-12T10:41:45.081Z,51.325748
2022-09-12T10:42:45.080Z,51.325737
2022-09-12T10:43:45.095Z,51.325722
2022-09-12T10:44:45.039Z,51.325714
2022-09-12T10:45:45.058Z,51.325718
2022-09-12T10:46:45.004Z,51.325722
2022-09-12T10:47:44.993Z,51.325699
2022-09-12T10:48:45.006Z,51.325710
2022-09-12T10:49:44.968Z,51.325733
2022-09-12T10:50:44.943Z,51.325729
2022-09-12T10:51:44.955Z,51.325745
2022-09-12T10:52:44.911Z,51.325741
2022-09-12T10:53:45.002Z,51.325756
2022-09-12T10:54:44.877Z,51.325710
2022-09-12T10:55:44.860Z,51.325706
2022-09-12T10:56:44.866Z,51.325706
2022-09-12T10:57:44.832Z,51.325691
2022-09-12T10:58:44.966Z,51.325737
2022-09-12T10:59:44.813Z,51.325737
2022-09-12T11:00:44.796Z,51.325745
2022-09-12T11:01:44.864Z,51.325741
2022-09-12T11:02:44.828Z,51.325714
2022-09-12T11:03:44.786Z,51.325714
2022-09-12T11:04:44.734Z,51.325718
2022-09-12T11:05:44.741Z,51.325714
2022-09-12T11:06:44.738Z,51.325710
2022-09-12T11:07:44.709Z,51.325718
2022-09-12T11:08:44.707Z,51.325748
2022-09-12T11:09:44.654Z,51.325726
2022-09-12T11:10:44.665Z,51.325706
2022-09-12T11:11:44.617Z,51.325706
2022-09-12T11:12:44.599Z,51.325695
2022-09-12T11:13:44.627Z,51.325714
2022-09-12T11:14:44.587Z,51.325710
2022-09-12T11:15:44.644Z,51.325718
2022-09-12T11:16:44.549Z,51.325722
2022-09-12T11:17:44.525Z,51.325691
2022-09-12T11:18:44.538Z,51.325729
2022-09-12T11:19:44.497Z,51.325665
2022-09-12T11:20:44.474Z,51.325680
2022-09-12T11:21:44.500Z,51.325714
2022-09-12T11:22:44.441Z,51.325695
2022-09-12T11:23:44.487Z,51.325741
2022-09-12T11:24:44.413Z,51.325729